CST,Max TemperatureF,Mean TemperatureF,Min TemperatureF,Max Dew PointF,MeanDew PointF,Min DewpointF,Max Humidity, Mean Humidity, Min Humidity, Max Sea Level PressureIn, Mean Sea Level PressureIn, Min Sea Level PressureIn, Max VisibilityMiles, Mean VisibilityMiles, Min VisibilityMiles, Max Wind SpeedMPH, Mean Wind SpeedMPH, Max Gust SpeedMPH,PrecipitationIn, CloudCover, Events, WindDirDegrees
2011-12-1,34,21,8,28,15,3,85,69,41,30.58,30.41,30.09,10,10,9,28,13,33,T,3,Snow,351
2011-12-2,35,21,7,18,11,5,84,58,32,30.51,30.20,29.98,10,10,10,26,14,32,0.00,0,,193
2011-12-3,34,30,25,27,21,16,85,74,63,30.13,30.06,29.99,10,7,1,17,8,22,0.02,7,Snow,328
2011-12-4,29,22,14,15,13,10,80,67,53,30.42,30.21,30.03,10,10,9,15,5,18,T,5,Snow,303
2011-12-5,20,11,1,14,7,-2,95,76,56,30.61,30.52,30.40,10,9,5,20,9,23,T,5,Snow,355
2011-12-6,21,9,-3,8,1,-8,92,75,59,30.55,30.31,30.02,10,10,10,17,8,23,0.00,0,Fog,192
2011-12-7,39,26,12,23,16,5,78,64,44,30.19,30.10,29.94,10,10,10,16,6,21,0.00,6,,304
2011-12-8,28,17,6,20,8,-3,82,58,35,30.32,30.26,30.14,10,10,10,20,10,25,0.00,4,,298
2011-12-9,19,11,2,0,-4,-8,76,55,30,30.49,30.42,30.33,10,10,10,16,7,21,0.00,0,,274
2011-12-10,48,28,8,23,16,1,81,65,34,30.41,30.25,30.13,10,10,10,15,9,20,0.00,0,,208
2011-12-11,39,33,26,34,27,19,93,81,67,30.14,30.04,29.96,10,7,1,25,15,32,T,5,,196
2011-12-12,39,31,22,36,29,21,89,83,72,30.31,30.17,30.00,10,7,4,17,6,22,T,8,,202
2011-12-13,37,31,25,37,28,21,100,89,75,30.32,30.19,29.97,10,4,0,10,5,13,0.02,8,Fog-Rain-Snow,152
2011-12-14,39,35,31,39,35,25,100,95,79,29.99,29.78,29.66,10,4,1,29,9,39,0.19,8,Rain,242
2011-12-15,32,22,12,25,19,10,88,74,61,30.44,30.16,29.86,10,10,6,24,14,30,T,5,Snow,312
2011-12-16,34,22,9,24,17,7,93,79,64,30.44,30.34,30.22,10,10,9,16,4,21,0.00,2,,128
2011-12-17,44,28,12,25,18,11,93,78,45,30.32,30.25,30.17,10,9,7,16,4,22,0.00,1,,258
2011-12-18,53,36,19,29,24,18,89,68,40,30.14,29.89,29.74,10,10,10,12,4,15,0.00,0,,214
2011-12-19,38,27,15,28,21,11,86,71,48,30.34,30.18,29.86,10,10,10,23,10,30,0.00,3,,4
2011-12-20,36,21,5,20,13,3,91,68,44,30.29,30.00,29.71,10,10,10,17,6,22,0.00,0,,199
2011-12-21,40,27,14,29,20,12,88,71,54,30.16,29.82,29.57,10,10,10,20,7,25,0.00,3,,2
2011-12-22,32,24,16,19,15,10,84,67,49,30.44,30.36,30.19,10,10,10,16,6,23,0.00,2,,319
2011-12-23,42,29,16,16,13,11,73,54,34,30.32,30.19,30.05,10,10,10,20,8,25,0.00,2,,250
2011-12-24,48,32,15,19,16,10,80,56,31,30.27,30.21,30.15,10,10,10,17,9,23,0.00,0,,262
2011-12-25,45,34,23,22,20,17,69,53,37,30.42,30.31,30.15,10,10,10,16,10,22,0.00,0,,283
2011-12-26,54,43,32,28,22,18,61,46,30,30.12,29.89,29.79,10,10,10,28,15,38,0.00,1,,243
2011-12-27,37,30,22,23,16,8,80,58,35,30.07,30.01,29.91,10,10,10,20,8,26,0.00,2,,324
2011-12-28,49,35,21,24,21,13,82,55,38,29.99,29.80,29.59,10,10,10,16,7,21,0.00,2,,220
2011-12-29,42,34,26,37,30,24,100,78,55,29.70,29.61,29.52,10,9,5,16,6,32,0.31,4,Rain,339
2011-12-30,39,34,29,37,33,27,100,91,81,29.85,29.71,29.55,10,9,4,24,10,31,0.02,7,Rain,310
2011-12-31,39,35,31,31,29,25,93,82,72,30.02,29.67,29.51,10,9,2,31,15,39,0.06,4,Rain-Snow,326